sensor_id;sensor_type;location;lat;lon;timestamp;P1;durP1;ratioP1;P2;durP2;ratioP2
45392;SDS011;31129;44.810;10.334;2023-12-29T00:01:45;82.32;;;52.17;;
45392;SDS011;31129;44.810;10.334;2023-12-29T00:04:11;83.97;;;51.38;;
45392;SDS011;31129;44.810;10.334;2023-12-29T00:06:40;79.53;;;48.88;;
45392;SDS011;31129;44.810;10.334;2023-12-29T00:09:05;80.30;;;49.78;;
45392;SDS011;31129;44.810;10.334;2023-12-29T00:11:32;81.15;;;48.08;;
45392;SDS011;31129;44.810;10.334;2023-12-29T00:13:58;76.63;;;48.80;;
45392;SDS011;31129;44.810;10.334;2023-12-29T00:16:24;76.53;;;46.97;;
45392;SDS011;31129;44.810;10.334;2023-12-29T00:18:49;80.10;;;48.85;;
45392;SDS011;31129;44.810;10.334;2023-12-29T00:21:15;75.13;;;46.08;;
45392;SDS011;31129;44.810;10.334;2023-12-29T00:23:40;74.65;;;47.55;;
45392;SDS011;31129;44.810;10.334;2023-12-29T00:26:06;75.80;;;46.30;;
45392;SDS011;31129;44.810;10.334;2023-12-29T00:28:31;76.68;;;46.95;;
45392;SDS011;31129;44.810;10.334;2023-12-29T00:30:57;81.68;;;47.95;;
45392;SDS011;31129;44.810;10.334;2023-12-29T00:33:24;76.10;;;47.75;;
45392;SDS011;31129;44.810;10.334;2023-12-29T00:35:50;84.63;;;48.85;;
45392;SDS011;31129;44.810;10.334;2023-12-29T00:38:15;83.65;;;49.53;;
45392;SDS011;31129;44.810;10.334;2023-12-29T00:40:41;72.57;;;46.03;;
45392;SDS011;31129;44.810;10.334;2023-12-29T00:43:06;71.20;;;46.45;;
45392;SDS011;31129;44.810;10.334;2023-12-29T00:45:32;79.78;;;48.70;;
45392;SDS011;31129;44.810;10.334;2023-12-29T00:48:01;78.72;;;46.67;;
45392;SDS011;31129;44.810;10.334;2023-12-29T00:50:27;74.10;;;44.67;;
45392;SDS011;31129;44.810;10.334;2023-12-29T00:52:53;74.07;;;43.47;;
45392;SDS011;31129;44.810;10.334;2023-12-29T00:55:19;78.25;;;45.00;;
45392;SDS011;31129;44.810;10.334;2023-12-29T00:57:44;72.63;;;44.60;;
45392;SDS011;31129;44.810;10.334;2023-12-29T01:00:11;85.50;;;45.60;;
45392;SDS011;31129;44.810;10.334;2023-12-29T01:02:38;66.90;;;42.80;;
45392;SDS011;31129;44.810;10.334;2023-12-29T01:05:04;67.78;;;41.25;;
45392;SDS011;31129;44.810;10.334;2023-12-29T01:07:30;64.68;;;41.92;;
45392;SDS011;31129;44.810;10.334;2023-12-29T01:09:56;61.08;;;39.50;;
45392;SDS011;31129;44.810;10.334;2023-12-29T01:12:22;65.28;;;40.55;;
45392;SDS011;31129;44.810;10.334;2023-12-29T01:14:47;57.83;;;40.03;;
45392;SDS011;31129;44.810;10.334;2023-12-29T01:17:32;57.80;;;37.88;;
45392;SDS011;31129;44.810;10.334;2023-12-29T01:19:57;59.88;;;39.28;;
45392;SDS011;31129;44.810;10.334;2023-12-29T01:22:23;61.83;;;37.28;;
45392;SDS011;31129;44.810;10.334;2023-12-29T01:24:48;61.58;;;40.38;;
45392;SDS011;31129;44.810;10.334;2023-12-29T01:27:13;68.55;;;39.75;;
45392;SDS011;31129;44.810;10.334;2023-12-29T01:29:39;55.78;;;37.10;;
45392;SDS011;31129;44.810;10.334;2023-12-29T01:32:05;62.25;;;38.45;;
45392;SDS011;31129;44.810;10.334;2023-12-29T01:34:33;64.65;;;38.55;;
45392;SDS011;31129;44.810;10.334;2023-12-29T01:36:59;57.67;;;34.78;;
45392;SDS011;31129;44.810;10.334;2023-12-29T01:39:25;54.08;;;35.65;;
45392;SDS011;31129;44.810;10.334;2023-12-29T01:41:50;63.40;;;37.58;;
45392;SDS011;31129;44.810;10.334;2023-12-29T01:44:19;54.90;;;36.38;;
45392;SDS011;31129;44.810;10.334;2023-12-29T01:46:46;54.03;;;37.58;;
45392;SDS011;31129;44.810;10.334;2023-12-29T01:51:44;67.65;;;38.30;;
45392;SDS011;31129;44.810;10.334;2023-12-29T01:54:14;62.78;;;39.85;;
45392;SDS011;31129;44.810;10.334;2023-12-29T01:56:40;60.95;;;38.80;;
45392;SDS011;31129;44.810;10.334;2023-12-29T01:59:06;61.03;;;40.10;;
45392;SDS011;31129;44.810;10.334;2023-12-29T02:01:31;67.47;;;40.65;;
45392;SDS011;31129;44.810;10.334;2023-12-29T02:03:57;65.13;;;39.90;;
45392;SDS011;31129;44.810;10.334;2023-12-29T02:06:23;67.47;;;42.38;;
45392;SDS011;31129;44.810;10.334;2023-12-29T02:08:50;73.90;;;41.47;;
45392;SDS011;31129;44.810;10.334;2023-12-29T02:11:16;63.72;;;40.00;;
45392;SDS011;31129;44.810;10.334;2023-12-29T02:13:42;64.22;;;41.58;;
45392;SDS011;31129;44.810;10.334;2023-12-29T02:16:20;66.30;;;41.33;;
45392;SDS011;31129;44.810;10.334;2023-12-29T02:18:51;67.07;;;41.65;;
45392;SDS011;31129;44.810;10.334;2023-12-29T02:21:23;70.65;;;41.70;;
45392;SDS011;31129;44.810;10.334;2023-12-29T02:23:50;67.70;;;41.33;;
45392;SDS011;31129;44.810;10.334;2023-12-29T02:26:15;74.82;;;44.88;;
45392;SDS011;31129;44.810;10.334;2023-12-29T02:28:44;65.47;;;41.10;;
45392;SDS011;31129;44.810;10.334;2023-12-29T02:31:19;69.93;;;44.00;;
45392;SDS011;31129;44.810;10.334;2023-12-29T02:33:47;69.47;;;42.60;;
45392;SDS011;31129;44.810;10.334;2023-12-29T02:36:15;69.40;;;44.90;;
45392;SDS011;31129;44.810;10.334;2023-12-29T02:38:42;68.07;;;44.42;;
45392;SDS011;31129;44.810;10.334;2023-12-29T02:41:07;68.85;;;44.53;;
45392;SDS011;31129;44.810;10.334;2023-12-29T02:43:33;75.57;;;46.00;;
45392;SDS011;31129;44.810;10.334;2023-12-29T02:45:59;72.28;;;45.60;;
45392;SDS011;31129;44.810;10.334;2023-12-29T02:48:24;76.63;;;48.28;;
45392;SDS011;31129;44.810;10.334;2023-12-29T02:50:50;75.40;;;47.60;;
45392;SDS011;31129;44.810;10.334;2023-12-29T02:53:16;77.22;;;47.25;;
45392;SDS011;31129;44.810;10.334;2023-12-29T02:55:41;73.00;;;44.80;;
45392;SDS011;31129;44.810;10.334;2023-12-29T02:58:08;82.88;;;47.65;;
45392;SDS011;31129;44.810;10.334;2023-12-29T03:00:34;78.13;;;47.03;;
45392;SDS011;31129;44.810;10.334;2023-12-29T03:03:00;76.05;;;47.45;;
45392;SDS011;31129;44.810;10.334;2023-12-29T03:05:25;78.72;;;47.78;;
45392;SDS011;31129;44.810;10.334;2023-12-29T03:07:51;77.22;;;48.42;;
45392;SDS011;31129;44.810;10.334;2023-12-29T03:10:17;76.35;;;48.65;;
45392;SDS011;31129;44.810;10.334;2023-12-29T03:12:42;81.63;;;47.55;;
45392;SDS011;31129;44.810;10.334;2023-12-29T03:15:08;80.70;;;48.45;;
45392;SDS011;31129;44.810;10.334;2023-12-29T03:17:34;78.50;;;49.17;;
45392;SDS011;31129;44.810;10.334;2023-12-29T03:20:00;81.38;;;48.60;;
45392;SDS011;31129;44.810;10.334;2023-12-29T03:22:26;75.85;;;47.88;;
45392;SDS011;31129;44.810;10.334;2023-12-29T03:24:51;81.80;;;50.53;;
45392;SDS011;31129;44.810;10.334;2023-12-29T03:27:17;77.38;;;49.85;;
45392;SDS011;31129;44.810;10.334;2023-12-29T03:29:42;78.95;;;50.90;;
45392;SDS011;31129;44.810;10.334;2023-12-29T03:32:08;84.15;;;51.70;;
45392;SDS011;31129;44.810;10.334;2023-12-29T03:34:34;81.60;;;50.33;;
45392;SDS011;31129;44.810;10.334;2023-12-29T03:36:59;83.10;;;50.45;;
45392;SDS011;31129;44.810;10.334;2023-12-29T03:39:24;90.80;;;51.22;;
45392;SDS011;31129;44.810;10.334;2023-12-29T03:41:50;81.72;;;49.72;;
45392;SDS011;31129;44.810;10.334;2023-12-29T03:44:16;74.32;;;48.47;;
45392;SDS011;31129;44.810;10.334;2023-12-29T03:46:42;82.15;;;48.38;;
45392;SDS011;31129;44.810;10.334;2023-12-29T03:49:08;74.88;;;46.53;;
45392;SDS011;31129;44.810;10.334;2023-12-29T03:51:34;77.68;;;49.28;;
45392;SDS011;31129;44.810;10.334;2023-12-29T03:54:00;76.70;;;47.00;;
45392;SDS011;31129;44.810;10.334;2023-12-29T03:56:26;74.93;;;45.17;;
45392;SDS011;31129;44.810;10.334;2023-12-29T03:58:52;69.38;;;44.17;;
45392;SDS011;31129;44.810;10.334;2023-12-29T04:01:17;72.03;;;46.28;;
45392;SDS011;31129;44.810;10.334;2023-12-29T04:03:45;71.80;;;44.03;;
45392;SDS011;31129;44.810;10.334;2023-12-29T04:06:11;69.75;;;43.05;;
45392;SDS011;31129;44.810;10.334;2023-12-29T04:08:37;69.18;;;43.63;;
45392;SDS011;31129;44.810;10.334;2023-12-29T04:11:04;68.85;;;42.97;;
45392;SDS011;31129;44.810;10.334;2023-12-29T04:13:30;74.78;;;42.53;;
45392;SDS011;31129;44.810;10.334;2023-12-29T04:15:56;64.00;;;40.92;;
45392;SDS011;31129;44.810;10.334;2023-12-29T04:18:22;57.58;;;40.22;;
45392;SDS011;31129;44.810;10.334;2023-12-29T04:20:49;68.60;;;40.00;;
45392;SDS011;31129;44.810;10.334;2023-12-29T04:23:15;61.38;;;39.28;;
45392;SDS011;31129;44.810;10.334;2023-12-29T04:25:40;60.33;;;39.20;;
45392;SDS011;31129;44.810;10.334;2023-12-29T04:28:06;60.03;;;38.20;;
45392;SDS011;31129;44.810;10.334;2023-12-29T04:30:33;59.80;;;36.30;;
45392;SDS011;31129;44.810;10.334;2023-12-29T04:32:59;52.45;;;33.80;;
45392;SDS011;31129;44.810;10.334;2023-12-29T04:35:25;50.80;;;31.77;;
45392;SDS011;31129;44.810;10.334;2023-12-29T04:37:50;47.10;;;31.98;;
45392;SDS011;31129;44.810;10.334;2023-12-29T04:40:16;50.17;;;33.55;;
45392;SDS011;31129;44.810;10.334;2023-12-29T04:42:42;60.75;;;37.75;;
45392;SDS011;31129;44.810;10.334;2023-12-29T04:45:08;57.35;;;34.97;;
45392;SDS011;31129;44.810;10.334;2023-12-29T04:47:33;62.15;;;38.42;;
45392;SDS011;31129;44.810;10.334;2023-12-29T04:49:59;53.58;;;33.95;;
45392;SDS011;31129;44.810;10.334;2023-12-29T04:52:25;58.38;;;35.03;;
45392;SDS011;31129;44.810;10.334;2023-12-29T04:54:50;54.30;;;36.00;;
45392;SDS011;31129;44.810;10.334;2023-12-29T04:57:16;49.90;;;33.17;;
45392;SDS011;31129;44.810;10.334;2023-12-29T04:59:41;48.60;;;33.00;;
45392;SDS011;31129;44.810;10.334;2023-12-29T05:02:07;56.05;;;35.40;;
45392;SDS011;31129;44.810;10.334;2023-12-29T05:04:32;48.47;;;32.90;;
45392;SDS011;31129;44.810;10.334;2023-12-29T05:06:58;46.75;;;32.50;;
45392;SDS011;31129;44.810;10.334;2023-12-29T05:09:23;53.85;;;36.67;;
45392;SDS011;31129;44.810;10.334;2023-12-29T05:11:49;54.25;;;35.13;;
45392;SDS011;31129;44.810;10.334;2023-12-29T05:14:15;51.55;;;34.72;;
45392;SDS011;31129;44.810;10.334;2023-12-29T05:16:44;55.40;;;35.05;;
45392;SDS011;31129;44.810;10.334;2023-12-29T05:19:09;52.17;;;35.80;;
45392;SDS011;31129;44.810;10.334;2023-12-29T05:21:35;53.22;;;34.42;;
45392;SDS011;31129;44.810;10.334;2023-12-29T05:24:00;47.03;;;29.50;;
45392;SDS011;31129;44.810;10.334;2023-12-29T05:26:26;56.88;;;33.47;;
45392;SDS011;31129;44.810;10.334;2023-12-29T05:28:51;51.17;;;34.15;;
45392;SDS011;31129;44.810;10.334;2023-12-29T05:31:17;56.92;;;36.90;;
45392;SDS011;31129;44.810;10.334;2023-12-29T05:33:44;56.58;;;36.15;;
45392;SDS011;31129;44.810;10.334;2023-12-29T05:36:10;55.85;;;35.75;;
45392;SDS011;31129;44.810;10.334;2023-12-29T05:38:39;53.63;;;36.15;;
45392;SDS011;31129;44.810;10.334;2023-12-29T05:41:06;56.67;;;36.45;;
45392;SDS011;31129;44.810;10.334;2023-12-29T05:43:32;56.35;;;38.45;;
45392;SDS011;31129;44.810;10.334;2023-12-29T05:45:59;63.53;;;39.85;;
45392;SDS011;31129;44.810;10.334;2023-12-29T05:48:26;65.07;;;40.10;;
45392;SDS011;31129;44.810;10.334;2023-12-29T05:50:51;67.07;;;42.67;;
45392;SDS011;31129;44.810;10.334;2023-12-29T05:53:17;65.35;;;42.63;;
45392;SDS011;31129;44.810;10.334;2023-12-29T05:55:43;68.28;;;42.28;;
45392;SDS011;31129;44.810;10.334;2023-12-29T05:58:09;66.10;;;42.47;;
45392;SDS011;31129;44.810;10.334;2023-12-29T06:00:38;72.93;;;45.20;;
45392;SDS011;31129;44.810;10.334;2023-12-29T06:03:06;63.50;;;43.10;;
45392;SDS011;31129;44.810;10.334;2023-12-29T06:05:32;67.20;;;44.03;;
45392;SDS011;31129;44.810;10.334;2023-12-29T06:07:58;69.05;;;43.80;;
45392;SDS011;31129;44.810;10.334;2023-12-29T06:10:24;61.88;;;43.58;;
45392;SDS011;31129;44.810;10.334;2023-12-29T06:12:49;66.07;;;43.30;;
45392;SDS011;31129;44.810;10.334;2023-12-29T06:15:15;73.28;;;45.40;;
45392;SDS011;31129;44.810;10.334;2023-12-29T06:17:40;66.43;;;43.90;;
45392;SDS011;31129;44.810;10.334;2023-12-29T06:20:07;70.53;;;45.22;;
45392;SDS011;31129;44.810;10.334;2023-12-29T06:22:38;74.85;;;45.42;;
45392;SDS011;31129;44.810;10.334;2023-12-29T06:25:10;63.58;;;44.53;;
45392;SDS011;31129;44.810;10.334;2023-12-29T06:27:37;74.75;;;44.90;;
45392;SDS011;31129;44.810;10.334;2023-12-29T06:30:07;73.38;;;44.55;;
45392;SDS011;31129;44.810;10.334;2023-12-29T06:32:33;70.93;;;45.25;;
45392;SDS011;31129;44.810;10.334;2023-12-29T06:34:59;72.90;;;45.95;;
45392;SDS011;31129;44.810;10.334;2023-12-29T06:37:25;70.47;;;45.63;;
45392;SDS011;31129;44.810;10.334;2023-12-29T06:39:50;71.95;;;44.88;;
45392;SDS011;31129;44.810;10.334;2023-12-29T06:42:16;68.03;;;44.47;;
45392;SDS011;31129;44.810;10.334;2023-12-29T06:44:41;75.07;;;46.08;;
45392;SDS011;31129;44.810;10.334;2023-12-29T06:47:07;70.72;;;45.42;;
45392;SDS011;31129;44.810;10.334;2023-12-29T06:49:35;77.53;;;48.38;;
45392;SDS011;31129;44.810;10.334;2023-12-29T06:54:26;69.95;;;44.47;;
45392;SDS011;31129;44.810;10.334;2023-12-29T06:56:52;72.47;;;45.80;;
45392;SDS011;31129;44.810;10.334;2023-12-29T06:59:17;70.68;;;44.75;;
45392;SDS011;31129;44.810;10.334;2023-12-29T07:01:45;69.93;;;45.63;;
45392;SDS011;31129;44.810;10.334;2023-12-29T07:04:11;81.85;;;46.45;;
45392;SDS011;31129;44.810;10.334;2023-12-29T07:06:37;75.40;;;46.38;;
45392;SDS011;31129;44.810;10.334;2023-12-29T07:09:03;72.10;;;47.03;;
45392;SDS011;31129;44.810;10.334;2023-12-29T07:11:29;71.72;;;46.20;;
45392;SDS011;31129;44.810;10.334;2023-12-29T07:13:54;75.80;;;46.03;;
45392;SDS011;31129;44.810;10.334;2023-12-29T07:16:20;77.30;;;45.83;;
45392;SDS011;31129;44.810;10.334;2023-12-29T07:18:46;78.38;;;43.05;;
45392;SDS011;31129;44.810;10.334;2023-12-29T07:21:12;69.82;;;46.00;;
45392;SDS011;31129;44.810;10.334;2023-12-29T07:23:39;71.03;;;45.37;;
45392;SDS011;31129;44.810;10.334;2023-12-29T07:26:05;68.88;;;41.50;;
45392;SDS011;31129;44.810;10.334;2023-12-29T07:28:31;67.93;;;41.55;;
45392;SDS011;31129;44.810;10.334;2023-12-29T07:30:57;68.95;;;42.30;;
45392;SDS011;31129;44.810;10.334;2023-12-29T07:33:23;65.32;;;40.35;;
45392;SDS011;31129;44.810;10.334;2023-12-29T07:35:49;56.75;;;38.13;;
45392;SDS011;31129;44.810;10.334;2023-12-29T07:38:15;60.35;;;38.30;;
45392;SDS011;31129;44.810;10.334;2023-12-29T07:40:41;55.40;;;38.10;;
45392;SDS011;31129;44.810;10.334;2023-12-29T07:43:07;56.42;;;36.00;;
45392;SDS011;31129;44.810;10.334;2023-12-29T07:45:34;59.25;;;38.60;;
45392;SDS011;31129;44.810;10.334;2023-12-29T07:48:01;65.50;;;38.75;;
45392;SDS011;31129;44.810;10.334;2023-12-29T07:50:27;57.38;;;37.05;;
45392;SDS011;31129;44.810;10.334;2023-12-29T07:52:53;62.78;;;37.42;;
45392;SDS011;31129;44.810;10.334;2023-12-29T07:55:18;59.03;;;37.13;;
45392;SDS011;31129;44.810;10.334;2023-12-29T07:57:44;61.70;;;38.33;;
45392;SDS011;31129;44.810;10.334;2023-12-29T08:00:12;61.80;;;39.75;;
45392;SDS011;31129;44.810;10.334;2023-12-29T08:02:38;64.25;;;39.65;;
45392;SDS011;31129;44.810;10.334;2023-12-29T08:05:03;63.50;;;39.83;;
45392;SDS011;31129;44.810;10.334;2023-12-29T08:07:29;61.78;;;38.58;;
45392;SDS011;31129;44.810;10.334;2023-12-29T08:09:54;63.72;;;39.33;;
45392;SDS011;31129;44.810;10.334;2023-12-29T08:12:20;59.58;;;38.40;;
45392;SDS011;31129;44.810;10.334;2023-12-29T08:14:45;60.05;;;38.60;;
45392;SDS011;31129;44.810;10.334;2023-12-29T08:17:11;55.25;;;36.45;;
45392;SDS011;31129;44.810;10.334;2023-12-29T08:19:37;57.42;;;37.50;;
45392;SDS011;31129;44.810;10.334;2023-12-29T08:22:03;56.55;;;36.55;;
45392;SDS011;31129;44.810;10.334;2023-12-29T08:24:28;59.08;;;37.85;;
45392;SDS011;31129;44.810;10.334;2023-12-29T08:26:54;59.80;;;37.63;;
45392;SDS011;31129;44.810;10.334;2023-12-29T08:29:19;59.08;;;36.72;;
45392;SDS011;31129;44.810;10.334;2023-12-29T08:31:46;60.22;;;38.42;;
45392;SDS011;31129;44.810;10.334;2023-12-29T08:34:12;56.42;;;37.33;;
45392;SDS011;31129;44.810;10.334;2023-12-29T08:36:37;58.95;;;36.55;;
45392;SDS011;31129;44.810;10.334;2023-12-29T08:39:03;57.45;;;38.90;;
45392;SDS011;31129;44.810;10.334;2023-12-29T08:41:28;66.18;;;38.78;;
45392;SDS011;31129;44.810;10.334;2023-12-29T08:43:54;54.03;;;35.25;;
45392;SDS011;31129;44.810;10.334;2023-12-29T08:46:20;58.70;;;38.28;;
45392;SDS011;31129;44.810;10.334;2023-12-29T08:48:45;57.42;;;37.45;;
45392;SDS011;31129;44.810;10.334;2023-12-29T08:51:11;58.40;;;36.03;;
45392;SDS011;31129;44.810;10.334;2023-12-29T08:53:37;50.17;;;34.90;;
45392;SDS011;31129;44.810;10.334;2023-12-29T08:56:02;56.97;;;34.50;;
45392;SDS011;31129;44.810;10.334;2023-12-29T08:58:28;56.28;;;34.33;;
45392;SDS011;31129;44.810;10.334;2023-12-29T09:00:55;50.38;;;33.83;;
45392;SDS011;31129;44.810;10.334;2023-12-29T09:03:20;55.17;;;34.10;;
45392;SDS011;31129;44.810;10.334;2023-12-29T09:05:45;58.95;;;35.78;;
45392;SDS011;31129;44.810;10.334;2023-12-29T09:08:11;53.78;;;35.63;;
45392;SDS011;31129;44.810;10.334;2023-12-29T09:10:37;53.30;;;33.78;;
45392;SDS011;31129;44.810;10.334;2023-12-29T09:13:03;53.58;;;33.88;;
45392;SDS011;31129;44.810;10.334;2023-12-29T09:15:29;53.60;;;33.13;;
45392;SDS011;31129;44.810;10.334;2023-12-29T09:17:55;54.58;;;34.63;;
45392;SDS011;31129;44.810;10.334;2023-12-29T09:20:20;47.72;;;33.45;;
45392;SDS011;31129;44.810;10.334;2023-12-29T09:22:46;52.00;;;34.47;;
45392;SDS011;31129;44.810;10.334;2023-12-29T09:25:11;48.30;;;34.28;;
45392;SDS011;31129;44.810;10.334;2023-12-29T09:27:37;53.65;;;33.30;;
45392;SDS011;31129;44.810;10.334;2023-12-29T09:30:03;51.65;;;33.95;;
45392;SDS011;31129;44.810;10.334;2023-12-29T09:32:30;55.83;;;34.93;;
45392;SDS011;31129;44.810;10.334;2023-12-29T09:34:55;51.22;;;33.70;;
45392;SDS011;31129;44.810;10.334;2023-12-29T09:37:21;59.38;;;33.95;;
45392;SDS011;31129;44.810;10.334;2023-12-29T09:39:47;56.13;;;35.95;;
45392;SDS011;31129;44.810;10.334;2023-12-29T09:42:13;45.42;;;32.35;;
45392;SDS011;31129;44.810;10.334;2023-12-29T09:44:49;52.17;;;33.17;;
45392;SDS011;31129;44.810;10.334;2023-12-29T09:47:18;53.80;;;34.63;;
45392;SDS011;31129;44.810;10.334;2023-12-29T09:49:48;55.20;;;34.22;;
45392;SDS011;31129;44.810;10.334;2023-12-29T09:52:15;54.60;;;34.83;;
45392;SDS011;31129;44.810;10.334;2023-12-29T09:54:42;52.65;;;34.38;;
45392;SDS011;31129;44.810;10.334;2023-12-29T09:57:09;61.50;;;34.55;;
45392;SDS011;31129;44.810;10.334;2023-12-29T09:59:34;55.13;;;34.05;;
45392;SDS011;31129;44.810;10.334;2023-12-29T10:02:04;59.75;;;34.88;;
45392;SDS011;31129;44.810;10.334;2023-12-29T10:04:30;52.47;;;32.55;;
45392;SDS011;31129;44.810;10.334;2023-12-29T10:06:56;50.42;;;31.70;;
45392;SDS011;31129;44.810;10.334;2023-12-29T10:09:24;57.70;;;34.30;;
45392;SDS011;31129;44.810;10.334;2023-12-29T10:11:50;53.63;;;33.00;;
45392;SDS011;31129;44.810;10.334;2023-12-29T10:14:22;54.88;;;32.60;;
45392;SDS011;31129;44.810;10.334;2023-12-29T10:16:53;50.97;;;32.95;;
45392;SDS011;31129;44.810;10.334;2023-12-29T10:24:58;58.78;;;33.65;;
45392;SDS011;31129;44.810;10.334;2023-12-29T10:27:24;48.92;;;30.50;;
45392;SDS011;31129;44.810;10.334;2023-12-29T10:29:50;51.08;;;32.10;;
45392;SDS011;31129;44.810;10.334;2023-12-29T10:32:17;51.58;;;31.23;;
45392;SDS011;31129;44.810;10.334;2023-12-29T10:34:43;49.10;;;33.05;;
45392;SDS011;31129;44.810;10.334;2023-12-29T10:37:08;55.08;;;33.03;;
45392;SDS011;31129;44.810;10.334;2023-12-29T10:39:38;53.92;;;33.83;;
45392;SDS011;31129;44.810;10.334;2023-12-29T10:42:07;52.78;;;33.53;;
45392;SDS011;31129;44.810;10.334;2023-12-29T10:44:34;49.55;;;32.20;;
45392;SDS011;31129;44.810;10.334;2023-12-29T10:47:07;49.67;;;32.67;;
45392;SDS011;31129;44.810;10.334;2023-12-29T10:49:34;51.55;;;32.30;;
45392;SDS011;31129;44.810;10.334;2023-12-29T10:51:59;52.05;;;32.97;;
45392;SDS011;31129;44.810;10.334;2023-12-29T10:54:25;52.35;;;32.45;;
45392;SDS011;31129;44.810;10.334;2023-12-29T10:57:01;49.80;;;32.03;;
45392;SDS011;31129;44.810;10.334;2023-12-29T10:59:30;53.95;;;32.95;;
45392;SDS011;31129;44.810;10.334;2023-12-29T11:02:00;51.08;;;32.97;;
45392;SDS011;31129;44.810;10.334;2023-12-29T11:04:28;56.63;;;32.92;;
45392;SDS011;31129;44.810;10.334;2023-12-29T11:06:54;52.30;;;32.40;;
45392;SDS011;31129;44.810;10.334;2023-12-29T11:09:32;51.17;;;32.85;;
45392;SDS011;31129;44.810;10.334;2023-12-29T11:12:02;54.65;;;32.63;;
45392;SDS011;31129;44.810;10.334;2023-12-29T11:14:28;50.58;;;33.15;;
45392;SDS011;31129;44.810;10.334;2023-12-29T11:16:55;48.55;;;33.20;;
45392;SDS011;31129;44.810;10.334;2023-12-29T11:19:22;46.88;;;30.45;;
45392;SDS011;31129;44.810;10.334;2023-12-29T11:21:51;52.05;;;34.05;;
45392;SDS011;31129;44.810;10.334;2023-12-29T11:24:19;51.33;;;31.63;;
45392;SDS011;31129;44.810;10.334;2023-12-29T11:26:45;49.20;;;32.08;;
45392;SDS011;31129;44.810;10.334;2023-12-29T11:29:11;62.08;;;33.42;;
45392;SDS011;31129;44.810;10.334;2023-12-29T11:31:38;49.75;;;30.52;;
45392;SDS011;31129;44.810;10.334;2023-12-29T11:34:37;55.30;;;32.75;;
45392;SDS011;31129;44.810;10.334;2023-12-29T11:37:08;49.22;;;31.55;;
45392;SDS011;31129;44.810;10.334;2023-12-29T11:42:47;51.88;;;32.80;;
45392;SDS011;31129;44.810;10.334;2023-12-29T11:47:51;54.45;;;30.40;;
45392;SDS011;31129;44.810;10.334;2023-12-29T11:50:37;54.43;;;31.37;;
45392;SDS011;31129;44.810;10.334;2023-12-29T11:53:05;52.03;;;32.03;;
45392;SDS011;31129;44.810;10.334;2023-12-29T11:55:36;49.72;;;32.75;;
45392;SDS011;31129;44.810;10.334;2023-12-29T11:58:03;49.55;;;31.95;;
45392;SDS011;31129;44.810;10.334;2023-12-29T12:00:50;50.40;;;34.03;;
45392;SDS011;31129;44.810;10.334;2023-12-29T12:03:25;56.95;;;35.40;;
45392;SDS011;31129;44.810;10.334;2023-12-29T12:05:52;56.03;;;34.50;;
45392;SDS011;31129;44.810;10.334;2023-12-29T12:10:53;58.63;;;35.33;;
45392;SDS011;31129;44.810;10.334;2023-12-29T12:19:07;51.38;;;36.25;;
45392;SDS011;31129;44.810;10.334;2023-12-29T12:21:34;55.20;;;35.05;;
45392;SDS011;31129;44.810;10.334;2023-12-29T12:24:01;51.47;;;33.95;;
45392;SDS011;31129;44.810;10.334;2023-12-29T12:26:28;55.60;;;34.50;;
45392;SDS011;31129;44.810;10.334;2023-12-29T12:28:55;49.67;;;33.63;;
45392;SDS011;31129;44.810;10.334;2023-12-29T12:31:21;56.13;;;35.97;;
45392;SDS011;31129;44.810;10.334;2023-12-29T12:33:54;56.85;;;36.28;;
45392;SDS011;31129;44.810;10.334;2023-12-29T12:36:20;50.92;;;35.03;;
45392;SDS011;31129;44.810;10.334;2023-12-29T12:38:56;56.15;;;35.63;;
45392;SDS011;31129;44.810;10.334;2023-12-29T12:41:22;56.88;;;35.63;;
45392;SDS011;31129;44.810;10.334;2023-12-29T12:46:35;56.45;;;36.05;;
45392;SDS011;31129;44.810;10.334;2023-12-29T12:49:06;52.55;;;37.08;;
45392;SDS011;31129;44.810;10.334;2023-12-29T12:51:32;56.55;;;35.50;;
45392;SDS011;31129;44.810;10.334;2023-12-29T12:53:58;51.22;;;35.63;;
45392;SDS011;31129;44.810;10.334;2023-12-29T12:56:24;56.08;;;33.70;;
45392;SDS011;31129;44.810;10.334;2023-12-29T12:58:56;50.10;;;34.97;;
45392;SDS011;31129;44.810;10.334;2023-12-29T13:01:23;48.10;;;32.00;;
45392;SDS011;31129;44.810;10.334;2023-12-29T13:03:50;49.38;;;32.38;;
45392;SDS011;31129;44.810;10.334;2023-12-29T13:06:16;54.78;;;33.40;;
45392;SDS011;31129;44.810;10.334;2023-12-29T13:08:43;52.53;;;34.03;;
45392;SDS011;31129;44.810;10.334;2023-12-29T13:11:09;54.20;;;32.63;;
45392;SDS011;31129;44.810;10.334;2023-12-29T13:16:03;46.22;;;30.08;;
45392;SDS011;31129;44.810;10.334;2023-12-29T13:18:29;47.20;;;30.65;;
45392;SDS011;31129;44.810;10.334;2023-12-29T13:20:56;53.97;;;32.13;;
45392;SDS011;31129;44.810;10.334;2023-12-29T13:23:26;49.47;;;31.77;;
45392;SDS011;31129;44.810;10.334;2023-12-29T13:26:13;52.67;;;33.72;;
45392;SDS011;31129;44.810;10.334;2023-12-29T13:28:38;47.67;;;33.55;;
45392;SDS011;31129;44.810;10.334;2023-12-29T13:31:04;52.88;;;33.03;;
45392;SDS011;31129;44.810;10.334;2023-12-29T13:33:32;52.97;;;34.38;;
45392;SDS011;31129;44.810;10.334;2023-12-29T13:36:19;54.25;;;35.03;;
45392;SDS011;31129;44.810;10.334;2023-12-29T13:38:51;51.72;;;32.50;;
45392;SDS011;31129;44.810;10.334;2023-12-29T13:41:20;49.40;;;31.52;;
45392;SDS011;31129;44.810;10.334;2023-12-29T13:43:48;51.17;;;33.55;;
45392;SDS011;31129;44.810;10.334;2023-12-29T13:46:15;57.22;;;33.42;;
45392;SDS011;31129;44.810;10.334;2023-12-29T13:48:42;53.30;;;34.95;;
45392;SDS011;31129;44.810;10.334;2023-12-29T13:51:08;53.83;;;34.30;;
45392;SDS011;31129;44.810;10.334;2023-12-29T13:53:34;50.97;;;35.25;;
45392;SDS011;31129;44.810;10.334;2023-12-29T13:56:10;59.08;;;35.83;;
45392;SDS011;31129;44.810;10.334;2023-12-29T13:58:36;66.97;;;37.45;;
45392;SDS011;31129;44.810;10.334;2023-12-29T14:01:03;54.20;;;35.45;;
45392;SDS011;31129;44.810;10.334;2023-12-29T14:06:29;53.67;;;36.72;;
45392;SDS011;31129;44.810;10.334;2023-12-29T14:09:03;57.40;;;36.03;;
45392;SDS011;31129;44.810;10.334;2023-12-29T14:11:29;57.13;;;36.03;;
45392;SDS011;31129;44.810;10.334;2023-12-29T14:13:56;52.88;;;35.47;;
45392;SDS011;31129;44.810;10.334;2023-12-29T14:16:21;57.90;;;36.90;;
45392;SDS011;31129;44.810;10.334;2023-12-29T14:29:12;58.65;;;36.35;;
45392;SDS011;31129;44.810;10.334;2023-12-29T14:31:41;53.03;;;35.30;;
45392;SDS011;31129;44.810;10.334;2023-12-29T14:34:08;61.58;;;36.72;;
45392;SDS011;31129;44.810;10.334;2023-12-29T14:36:35;53.80;;;36.58;;
45392;SDS011;31129;44.810;10.334;2023-12-29T14:39:03;59.80;;;35.90;;
45392;SDS011;31129;44.810;10.334;2023-12-29T14:41:29;53.83;;;35.35;;
45392;SDS011;31129;44.810;10.334;2023-12-29T14:43:55;54.63;;;37.10;;
45392;SDS011;31129;44.810;10.334;2023-12-29T14:46:22;49.03;;;34.88;;
45392;SDS011;31129;44.810;10.334;2023-12-29T14:48:47;50.47;;;35.13;;
45392;SDS011;31129;44.810;10.334;2023-12-29T14:51:13;61.15;;;36.38;;